»·PEaware :: N171CP L88-KSBP

N171CP :: L88-KSBP

FLIGHT INFORMATION

Flight Status: Arrived
Operator: Privately registered:
United States
More flights under this callsign
Pilot: Dwight D. (26772)
Aircraft: CESSNA 172 SKYHAWK
(C172)
More flights by this aircraft type
Origin: L88 New Cuyama
United States
Destination: KSBP San Luis Co Regl
United States
More flights between these airports :: More routes between these airports
Route:
File this flight plan on PilotEdge
Remarks:
Altitude:
(Current/Filed)
3,500ft
Speed:
(Current/Filed)
110kts
Departed: 25-Nov-19 05:28 AM
Arrived: 25-Nov-19 06:04 AM
Distance/Time
Traveled:
96nm/0:35
Distance/Time
To Go:
Arrived

Flight Plot

Page will automatically refresh every two minutes.


Map Options




Map Legend


Flown Route
Filed Route
Departure Airport
Arrival Airport
Navaid (VOR, NDB)
Fix

Horizontal Profiles

Position Reports

Time Latitude Longitude Heading Altitude Ground
Speed
25-Nov-19 05:15 33.799651 -118.332987 308 106ft 0kts
25-Nov-19 05:16 33.799651 -118.332988 308 106ft 0kts
25-Nov-19 05:17 34.935269 -119.682696 295 2209ft 0kts
25-Nov-19 05:18 34.935269 -119.682696 295 2206ft 0kts
25-Nov-19 05:19 34.935269 -119.682696 295 2206ft 0kts
25-Nov-19 05:20 34.935269 -119.682696 295 2206ft 0kts
25-Nov-19 05:21 34.935269 -119.682696 295 2206ft 0kts
25-Nov-19 05:22 34.935269 -119.682696 295 2206ft 0kts
25-Nov-19 05:23 34.935273 -119.682705 295 2206ft 0kts
25-Nov-19 05:24 34.935273 -119.682705 295 2206ft 0kts
25-Nov-19 05:25 34.938218 -119.690415 294 2206ft 34kts
25-Nov-19 05:26 34.940623 -119.695719 90 2206ft 15kts
25-Nov-19 05:27 34.938113 -119.690060 112 2206ft 47kts
25-Nov-19 05:28 34.934597 -119.681374 308 2206ft 7kts
25-Nov-19 05:29 34.935751 -119.683969 293 2206ft 44kts
25-Nov-19 05:30 34.944049 -119.705926 296 2814ft 71kts
25-Nov-19 05:31 34.952187 -119.730495 290 3463ft 81kts
25-Nov-19 05:32 34.963461 -119.760520 278 3332ft 107kts
25-Nov-19 05:33 34.962712 -119.780136 158 3707ft 123kts
25-Nov-19 05:34 34.953524 -119.786869 317 4391ft 76kts
25-Nov-19 05:35 34.971730 -119.802644 315 4374ft 117kts
25-Nov-19 05:36 34.992589 -119.831828 305 4116ft 112kts
25-Nov-19 05:37 35.008184 -119.864335 298 3953ft 109kts
25-Nov-19 05:38 35.022489 -119.898977 297 3684ft 114kts
25-Nov-19 05:39 35.036355 -119.933681 297 3491ft 111kts
25-Nov-19 05:40 35.049701 -119.967261 297 3499ft 109kts
25-Nov-19 05:41 35.062023 -119.998415 297 3856ft 92kts
25-Nov-19 05:42 35.076410 -120.022691 310 4348ft 86kts
25-Nov-19 05:43 35.091685 -120.043717 308 4920ft 79kts
25-Nov-19 05:44 35.099271 -120.067398 285 5483ft 77kts
25-Nov-19 05:45 35.106177 -120.096945 286 5504ft 98kts
25-Nov-19 05:46 35.114083 -120.129631 286 5500ft 99kts
25-Nov-19 05:47 35.121987 -120.162135 286 5500ft 99kts
25-Nov-19 05:48 35.129901 -120.194656 286 5500ft 99kts
25-Nov-19 05:49 35.137791 -120.227085 286 5500ft 99kts
25-Nov-19 05:50 35.145718 -120.259640 286 5499ft 99kts
25-Nov-19 05:51 35.153637 -120.292137 286 5500ft 99kts
25-Nov-19 05:52 35.161551 -120.324585 286 5500ft 99kts
25-Nov-19 05:53 35.169482 -120.357099 286 5500ft 99kts
25-Nov-19 05:54 35.177428 -120.389672 286 5500ft 99kts
25-Nov-19 05:55 35.185268 -120.422101 283 5498ft 100kts
25-Nov-19 05:56 35.185534 -120.455929 268 5045ft 106kts
25-Nov-19 05:57 35.182334 -120.491123 266 4255ft 104kts
25-Nov-19 05:58 35.178564 -120.526722 266 3465ft 106kts
25-Nov-19 05:59 35.176331 -120.562752 287 2790ft 102kts
25-Nov-19 06:00 35.193897 -120.585914 327 2101ft 87kts
25-Nov-19 06:02 35.209945 -120.600112 324 1594ft 70kts
25-Nov-19 06:03 35.223079 -120.617581 309 1065ft 71kts
25-Nov-19 06:04 35.234364 -120.636123 307 215ft 39kts
25-Nov-19 06:05 35.236398 -120.639524 305 215ft 0kts
25-Nov-19 06:06 33.799650 -118.332986 308 103ft 0kts
25-Nov-19 06:07 33.799650 -118.332986 308 103ft 0kts
25-Nov-19 06:08 33.799650 -118.332986 308 103ft 0kts
25-Nov-19 06:09 33.799650 -118.332986 308 103ft 0kts
25-Nov-19 06:10 33.799650 -118.332986 308 103ft 0kts

Navigation Log

Ident Type
Flight plan parsing failed, navigation log unavailable